Time;durP1;ratioP1;P1;durP2;ratioP2;P2;SDS_P1;SDS_P2;PMS_P1;PMS_P2;Temp;Humidity;BMP_temperature;BMP_pressure;BME280_temperature;BME280_humidity;BME280_pressure;Samples;Min_cycle;Max_cycle;Signal;HPM_P1;HPM_P2
2022/10/24 00:02:11;;;;;;;11.45;3.45;;;;;;;13.50;100.00;100390.66;6180562;23;20005;-89
2022/10/24 00:04:38;;;;;;;15.13;3.97;;;;;;;13.43;100.00;100395.28;6180778;23;20039;-88
2022/10/24 00:07:05;;;;;;;9.13;2.97;;;;;;;13.44;100.00;100391.72;6179455;23;20040;-88
2022/10/24 00:09:32;;;;;;;12.02;3.45;;;;;;;13.40;100.00;100390.19;6180343;23;20001;-89
2022/10/24 00:11:57;;;;;;;11.65;3.60;;;;;;;13.43;100.00;100397.88;6181011;23;20001;-88
2022/10/24 00:14:23;;;;;;;12.45;3.83;;;;;;;13.40;100.00;100389.34;6179536;23;20012;-89
2022/10/24 00:16:48;;;;;;;14.73;3.13;;;;;;;13.35;100.00;100379.13;6181670;23;20008;-89
2022/10/24 00:19:13;;;;;;;9.23;3.27;;;;;;;13.33;100.00;100378.34;6178931;23;20005;-88
2022/10/24 00:21:38;;;;;;;7.93;3.10;;;;;;;13.34;100.00;100385.25;6182010;23;20760;-89
2022/10/24 00:24:05;;;;;;;8.65;3.15;;;;;;;13.34;100.00;100387.84;6181121;23;20011;-89
2022/10/24 00:26:30;;;;;;;8.25;3.30;;;;;;;13.34;100.00;100382.63;6179276;23;20055;-88
2022/10/24 00:28:56;;;;;;;8.68;3.13;;;;;;;13.33;100.00;100375.72;6179987;23;20331;-89
2022/10/24 00:31:21;;;;;;;7.10;2.80;;;;;;;13.31;100.00;100371.50;6181088;23;19996;-89
2022/10/24 00:33:47;;;;;;;8.95;3.10;;;;;;;13.27;100.00;100376.00;6181689;23;20318;-88
2022/10/24 00:36:15;;;;;;;12.57;3.28;;;;;;;13.27;100.00;100372.53;6181135;23;20012;-88
2022/10/24 00:38:41;;;;;;;9.07;3.00;;;;;;;13.24;100.00;100373.50;6180330;23;20419;-89
2022/10/24 00:41:06;;;;;;;10.75;3.30;;;;;;;13.27;100.00;100373.41;6181712;23;20009;-88
2022/10/24 00:43:32;;;;;;;11.90;3.33;;;;;;;13.27;100.00;100367.34;6180904;23;20057;-89
2022/10/24 00:45:59;;;;;;;11.93;3.00;;;;;;;13.29;100.00;100375.94;6180636;23;20009;-89
2022/10/24 00:48:31;;;;;;;8.52;3.22;;;;;;;13.28;100.00;100369.03;6178762;23;20102;-88
2022/10/24 00:51:00;;;;;;;7.43;3.08;;;;;;;13.29;100.00;100368.97;6181433;23;20004;-88
2022/10/24 00:53:28;;;;;;;10.73;3.10;;;;;;;13.32;100.00;100368.84;6181289;23;20088;-88
2022/10/24 00:55:56;;;;;;;7.80;2.90;;;;;;;13.32;100.00;100362.78;6181208;23;20070;-89
2022/10/24 00:58:25;;;;;;;6.40;2.95;;;;;;;13.27;100.00;100360.38;6152418;23;20009;-88
2022/10/24 01:00:50;;;;;;;8.15;3.38;;;;;;;13.24;100.00;100364.84;6178296;23;20013;-88
2022/10/24 01:03:16;;;;;;;9.63;3.10;;;;;;;13.19;100.00;100357.25;6180932;23;20051;-89
2022/10/24 01:06:11;;;;;;;9.05;3.13;;;;;;;13.15;100.00;100352.25;6181119;23;20000;-88
2022/10/24 01:08:46;;;;;;;7.72;3.30;;;;;;;13.09;100.00;100344.66;6153466;23;20009;-88
2022/10/24 01:11:36;;;;;;;9.85;3.45;;;;;;;13.11;100.00;100361.03;6180883;23;20479;-89
2022/10/24 01:14:15;;;;;;;7.05;3.38;;;;;;;13.10;100.00;100362.78;6154925;23;20008;-88
2022/10/24 01:17:08;;;;;;;11.98;3.30;;;;;;;13.07;100.00;100357.75;6183030;23;20001;-89
2022/10/24 01:19:48;;;;;;;11.25;3.60;;;;;;;13.05;100.00;100354.34;6156166;23;20009;-88
2022/10/24 01:22:23;;;;;;;8.00;3.42;;;;;;;13.05;100.00;100352.59;6156240;23;20065;-89
2022/10/24 01:25:03;;;;;;;9.85;3.38;;;;;;;13.05;100.00;100352.59;6183541;23;20427;-89
2022/10/24 01:27:35;;;;;;;10.52;3.60;;;;;;;13.05;100.00;100354.34;6182456;23;20017;-88
2022/10/24 01:30:04;;;;;;;10.65;3.55;;;;;;;13.06;100.00;100343.88;6180911;23;20008;-88
2022/10/24 01:32:42;;;;;;;7.00;3.40;;;;;;;13.04;100.00;100335.28;6155984;23;20001;-88
2022/10/24 01:35:26;;;;;;;11.30;3.78;;;;;;;13.10;100.00;100348.97;6183117;23;20001;-88
2022/10/24 01:37:58;;;;;;;9.80;3.60;;;;;;;13.10;100.00;100341.16;6155802;23;20007;-88
2022/10/24 01:40:35;;;;;;;15.40;3.83;;;;;;;13.15;100.00;100344.44;6156174;23;20059;-86
2022/10/24 01:43:08;;;;;;;9.07;3.85;;;;;;;13.20;100.00;100338.13;6182450;23;20005;-87
2022/10/24 01:45:37;;;;;;;10.48;3.53;;;;;;;13.27;100.00;100341.31;6182235;23;20071;-87
2022/10/24 01:48:06;;;;;;;7.28;3.45;;;;;;;13.32;100.00;100340.19;6182055;23;20490;-87
2022/10/24 01:50:35;;;;;;;9.55;3.60;;;;;;;13.31;100.00;100332.44;6183009;23;20005;-87
2022/10/24 01:53:01;;;;;;;11.73;3.53;;;;;;;13.36;100.00;100331.38;6182322;23;20378;-87
2022/10/24 01:55:28;;;;;;;6.63;3.13;;;;;;;13.39;100.00;100327.75;6154632;23;20438;-87
2022/10/24 01:57:54;;;;;;;6.60;3.40;;;;;;;13.47;100.00;100335.25;6182022;23;20087;-87
2022/10/24 02:00:22;;;;;;;8.20;3.40;;;;;;;13.49;100.00;100325.63;6181980;23;20005;-87
2022/10/24 02:02:54;;;;;;;7.32;3.20;;;;;;;13.50;100.00;100324.72;6182292;23;20001;-87
2022/10/24 02:05:37;;;;;;;8.50;3.25;;;;;;;13.53;100.00;100324.56;6182308;23;20001;-87
2022/10/24 02:08:09;;;;;;;5.80;2.83;;;;;;;13.54;100.00;100326.25;6154612;23;20009;-86
2022/10/24 02:10:40;;;;;;;9.82;3.03;;;;;;;13.55;100.00;100323.59;6182021;23;20012;-87
2022/10/24 02:13:14;;;;;;;8.02;2.95;;;;;;;13.57;100.00;100318.31;6155943;23;20465;-87
2022/10/24 02:15:46;;;;;;;6.63;3.00;;;;;;;13.60;100.00;100324.22;6155703;23;20005;-87
2022/10/24 02:18:12;;;;;;;8.68;2.83;;;;;;;13.61;100.00;100325.91;6181501;23;20080;-87
2022/10/24 02:21:15;;;;;;;8.18;2.90;;;;;;;13.67;100.00;100325.63;6182099;23;20380;-86
2022/10/24 02:23:50;;;;;;;8.38;2.90;;;;;;;13.67;100.00;100317.81;6154809;23;20012;-87
2022/10/24 02:26:28;;;;;;;9.30;3.30;;;;;;;13.71;100.00;100323.75;6182764;23;20004;-87
2022/10/24 02:28:57;;;;;;;8.77;2.90;;;;;;;13.71;100.00;100322.00;6180818;23;20485;-87
2022/10/24 02:31:25;;;;;;;7.70;2.67;;;;;;;13.75;100.00;100323.53;6155248;23;19997;-87
2022/10/24 02:33:53;;;;;;;6.28;2.88;;;;;;;13.74;100.00;100329.66;6181993;23;20004;-87
2022/10/24 02:36:25;;;;;;;5.53;2.38;;;;;;;13.76;100.00;100321.78;6155821;23;20001;-87
2022/10/24 02:38:52;;;;;;;7.65;2.40;;;;;;;13.78;100.00;100331.19;6181647;23;20080;-88
2022/10/24 02:41:23;;;;;;;7.72;2.70;;;;;;;13.74;100.00;100313.19;6155266;23;20009;-89
2022/10/24 02:43:50;;;;;;;8.30;2.70;;;;;;;13.77;100.00;100321.72;6181592;23;20005;-88
2022/10/24 02:46:17;;;;;;;7.88;2.67;;;;;;;13.76;100.00;100321.78;6181129;23;20092;-89
2022/10/24 02:48:49;;;;;;;6.63;2.63;;;;;;;13.77;99.41;100321.72;6182010;23;20316;-89
2022/10/24 02:51:17;;;;;;;7.72;2.50;;;;;;;13.76;100.00;100333.06;6181526;23;20443;-89
2022/10/24 02:53:43;;;;;;;6.88;2.90;;;;;;;13.76;98.59;100320.03;6155059;23;20044;-89
2022/10/24 02:56:08;;;;;;;5.68;2.30;;;;;;;13.81;97.57;100325.88;6182443;23;20012;-88
2022/10/24 02:58:33;;;;;;;8.05;2.53;;;;;;;13.83;98.63;100321.44;6179490;23;20012;-89
2022/10/24 03:00:59;;;;;;;5.95;2.20;;;;;;;13.85;98.20;100337.00;6181379;23;20005;-89
2022/10/24 03:03:24;;;;;;;5.93;2.72;;;;;;;13.90;98.21;100331.59;6181000;23;20001;-89
2022/10/24 03:05:49;;;;;;;7.10;2.25;;;;;;;13.90;96.86;100335.03;6182157;23;20460;-89
2022/10/24 03:08:15;;;;;;;7.32;2.33;;;;;;;13.94;96.55;100330.50;6180795;23;20055;-87
2022/10/24 03:10:40;;;;;;;6.85;2.20;;;;;;;13.97;96.71;100330.38;6180361;23;20004;-87
2022/10/24 03:13:05;;;;;;;5.10;2.28;;;;;;;13.99;95.80;100324.16;6180964;23;20001;-87
2022/10/24 03:15:31;;;;;;;5.28;2.13;;;;;;;13.98;97.03;100332.94;6181706;23;20080;-87
2022/10/24 03:17:56;;;;;;;7.28;2.33;;;;;;;13.96;96.61;100334.75;6181356;23;20012;-87
2022/10/24 03:20:23;;;;;;;7.03;2.28;;;;;;;13.98;96.48;100332.94;6181038;23;20395;-87
2022/10/24 03:22:48;;;;;;;3.80;2.08;;;;;;;13.99;96.01;100332.00;6181759;23;20020;-87
2022/10/24 03:25:14;;;;;;;9.05;2.30;;;;;;;14.03;95.67;100327.50;6180817;23;20011;-87
2022/10/24 03:27:39;;;;;;;7.72;2.13;;;;;;;14.08;93.74;100328.97;6180870;23;20012;-87
2022/10/24 03:30:05;;;;;;;5.60;2.10;;;;;;;14.10;95.46;100332.34;6180449;23;20123;-87
2022/10/24 03:32:32;;;;;;;6.15;2.30;;;;;;;14.09;94.59;100338.47;6180858;23;20036;-86
2022/10/24 03:34:58;;;;;;;5.72;2.00;;;;;;;14.07;94.28;100327.28;6181478;23;20024;-87
2022/10/24 03:37:23;;;;;;;7.30;2.15;;;;;;;14.07;94.69;100329.88;6181513;23;20066;-87
2022/10/24 03:39:48;;;;;;;6.55;2.00;;;;;;;14.07;94.81;100321.22;6181722;23;20001;-87
2022/10/24 03:42:14;;;;;;;7.70;2.20;;;;;;;14.05;94.79;100323.91;6179696;23;20009;-87
2022/10/24 03:44:39;;;;;;;7.05;2.17;;;;;;;14.05;94.81;100318.72;6179263;23;20071;-87
2022/10/24 03:47:05;;;;;;;7.07;2.28;;;;;;;14.04;94.46;100310.94;6180319;23;20001;-87
2022/10/24 03:49:31;;;;;;;8.13;2.33;;;;;;;14.03;94.77;100317.06;6180707;23;20063;-87
2022/10/24 03:51:56;;;;;;;5.32;2.17;;;;;;;14.06;93.61;100320.38;6180465;23;20001;-87
2022/10/24 03:54:21;;;;;;;7.30;2.40;;;;;;;14.11;93.86;100312.34;6180434;23;20153;-87
2022/10/24 03:56:48;;;;;;;8.50;2.50;;;;;;;14.13;94.27;100300.06;6179831;23;20043;-87
2022/10/24 03:59:13;;;;;;;5.97;2.25;;;;;;;14.15;93.36;100304.31;6178606;23;20283;-87
2022/10/24 04:01:39;;;;;;;6.57;2.88;;;;;;;14.18;93.23;100306.78;6181188;23;20005;-87
2022/10/24 04:04:04;;;;;;;9.15;2.40;;;;;;;14.22;93.90;100315.28;6181194;23;20020;-87
2022/10/24 04:06:29;;;;;;;8.47;2.40;;;;;;;14.21;92.75;100308.38;6181337;23;20005;-87
2022/10/24 04:08:56;;;;;;;5.68;2.30;;;;;;;14.20;92.89;100312.75;6178795;23;20248;-87
2022/10/24 04:11:21;;;;;;;8.43;2.30;;;;;;;14.20;92.61;100312.75;6180253;23;20004;-87
2022/10/24 04:13:47;;;;;;;6.85;2.35;;;;;;;14.22;93.00;100310.94;6180910;23;20001;-87
2022/10/24 04:16:12;;;;;;;6.43;2.35;;;;;;;14.23;92.91;100312.63;6180802;23;20460;-87
2022/10/24 04:18:37;;;;;;;6.03;2.17;;;;;;;14.31;92.00;100304.44;6180416;23;20004;-87
2022/10/24 04:21:03;;;;;;;9.07;2.33;;;;;;;14.32;91.70;100313.09;6181124;23;20343;-87
2022/10/24 04:23:33;;;;;;;6.50;2.10;;;;;;;14.36;91.18;100314.63;6180245;23;20005;-87
2022/10/24 04:25:59;;;;;;;7.88;2.28;;;;;;;14.38;91.40;100310.25;6180451;23;20011;-87
2022/10/24 04:28:24;;;;;;;7.85;2.17;;;;;;;14.39;91.02;100304.09;6180130;23;20076;-88
2022/10/24 04:30:54;;;;;;;10.10;2.00;;;;;;;14.37;90.97;100303.28;6180905;23;19997;-87
2022/10/24 04:33:19;;;;;;;9.20;2.10;;;;;;;14.37;91.07;100306.75;6180918;23;20338;-87
2022/10/24 04:35:49;;;;;;;8.20;2.13;;;;;;;14.35;91.06;100305.97;6179439;23;20431;-88
2022/10/24 04:38:14;;;;;;;5.85;1.90;;;;;;;14.29;91.44;100301.06;6178745;23;20874;-88
2022/10/24 04:40:40;;;;;;;7.50;2.17;;;;;;;14.29;91.26;100311.47;6180406;23;20048;-89
2022/10/24 04:43:05;;;;;;;6.65;2.00;;;;;;;14.30;91.20;100313.19;6178241;23;20343;-88
2022/10/24 04:45:30;;;;;;;8.10;2.03;;;;;;;14.29;91.13;100308.88;6180368;23;20005;-89
2022/10/24 04:47:56;;;;;;;7.43;1.67;;;;;;;14.30;90.75;100310.56;6179811;23;20319;-89
2022/10/24 04:50:21;;;;;;;8.60;2.00;;;;;;;14.31;90.21;100314.03;6182850;23;20001;-90
2022/10/24 04:52:47;;;;;;;8.52;1.92;;;;;;;14.29;90.96;100306.25;6181606;23;19997;-89
2022/10/24 04:55:12;;;;;;;5.43;1.73;;;;;;;14.30;91.15;100305.34;6182279;23;20013;-89
2022/10/24 04:57:38;;;;;;;6.25;1.70;;;;;;;14.32;90.35;100313.09;6182686;23;20001;-89
2022/10/24 05:00:04;;;;;;;8.45;1.88;;;;;;;14.28;91.04;100317.59;6181807;23;20359;-90
2022/10/24 05:02:29;;;;;;;8.13;1.90;;;;;;;14.31;91.78;100329.66;6179892;23;20635;-89
2022/10/24 05:04:55;;;;;;;8.68;1.70;;;;;;;14.29;90.82;100321.06;6180810;23;20037;-88
2022/10/24 05:07:20;;;;;;;9.05;2.03;;;;;;;14.27;91.87;100315.06;6180093;23;20817;-89
2022/10/24 05:09:46;;;;;;;6.10;1.90;;;;;;;14.33;91.15;100322.63;6179526;23;20040;-89
2022/10/24 05:12:12;;;;;;;5.75;1.80;;;;;;;14.34;92.74;100314.72;6182289;23;20050;-88
2022/10/24 05:14:38;;;;;;;9.15;1.67;;;;;;;14.41;90.76;100310.06;6180564;23;20487;-89
2022/10/24 05:17:03;;;;;;;4.72;1.80;;;;;;;14.46;91.04;100305.50;6182457;23;20001;-89
2022/10/24 05:19:28;;;;;;;6.45;1.92;;;;;;;14.45;90.96;100322.91;6182714;23;20005;-89
2022/10/24 05:21:54;;;;;;;7.55;1.88;;;;;;;14.42;91.09;100325.66;6181560;23;20783;-89
2022/10/24 05:24:19;;;;;;;6.88;1.70;;;;;;;14.41;91.81;100323.13;6182495;23;20037;-89
2022/10/24 05:26:44;;;;;;;6.97;1.63;;;;;;;14.34;90.72;100322.53;6182296;23;20052;-89
2022/10/24 05:29:10;;;;;;;8.93;2.00;;;;;;;14.34;91.44;100330.34;6181106;23;20084;-89
2022/10/24 05:31:35;;;;;;;8.35;2.05;;;;;;;14.42;92.18;100335.25;6182683;23;20108;-89
2022/10/24 05:34:00;;;;;;;6.28;1.90;;;;;;;14.45;90.72;100341.16;6182893;23;20000;-89
2022/10/24 05:36:28;;;;;;;8.98;1.88;;;;;;;14.46;91.91;100336.81;6182745;23;20040;-89
2022/10/24 05:38:53;;;;;;;9.00;2.70;;;;;;;14.52;90.73;100346.94;6181908;23;20084;-89
2022/10/24 05:41:19;;;;;;;5.25;1.73;;;;;;;14.54;90.79;100347.69;6182184;23;20083;-89
2022/10/24 05:43:44;;;;;;;8.05;1.70;;;;;;;14.59;90.45;100335.28;6182177;23;20080;-89
2022/10/24 05:46:09;;;;;;;7.07;1.85;;;;;;;14.62;89.75;100335.97;6181348;23;20459;-89
2022/10/24 05:48:35;;;;;;;12.20;2.25;;;;;;;14.67;90.06;100343.56;6181703;23;20016;-89
2022/10/24 05:51:03;;;;;;;8.57;1.80;;;;;;;14.69;89.90;100339.13;6182422;23;20435;-89
2022/10/24 05:53:28;;;;;;;9.40;1.80;;;;;;;14.72;90.09;100339.00;6182876;23;20016;-88
2022/10/24 05:55:53;;;;;;;11.43;2.17;;;;;;;14.70;89.72;100326.94;6180711;23;20024;-88
2022/10/24 05:58:21;;;;;;;8.30;1.75;;;;;;;14.73;88.96;100340.69;6182183;23;20621;-89
2022/10/24 06:00:47;;;;;;;6.10;1.77;;;;;;;14.74;89.69;100344.16;6182448;23;19997;-89
2022/10/24 06:03:12;;;;;;;10.15;2.00;;;;;;;14.70;89.07;100351.25;6182403;23;20076;-88
2022/10/24 06:05:38;;;;;;;8.82;1.60;;;;;;;14.63;90.31;100339.44;6180917;23;20048;-88
2022/10/24 06:08:03;;;;;;;8.85;1.77;;;;;;;14.59;89.98;100343.97;6183081;23;20029;-90
2022/10/24 06:10:29;;;;;;;11.43;1.85;;;;;;;14.59;89.71;100348.34;6183264;23;20001;-89
2022/10/24 06:12:54;;;;;;;6.25;1.58;;;;;;;14.55;90.40;100338.94;6182098;23;20008;-89
2022/10/24 06:15:19;;;;;;;6.93;1.80;;;;;;;14.56;89.83;100356.28;6181751;23;20339;-89
2022/10/24 06:17:45;;;;;;;9.73;1.67;;;;;;;14.55;89.37;100354.59;6182189;23;20371;-89
2022/10/24 06:20:10;;;;;;;7.18;1.70;;;;;;;14.58;88.88;100352.69;6182611;23;20331;-89
2022/10/24 06:22:35;;;;;;;7.38;1.38;;;;;;;14.56;89.61;100356.28;6182656;23;20005;-89
2022/10/24 06:25:04;;;;;;;9.18;1.70;;;;;;;14.57;89.55;100347.56;6182629;23;20005;-89
2022/10/24 06:27:29;;;;;;;8.05;1.67;;;;;;;14.55;89.52;100358.06;6180868;23;20001;-89
2022/10/24 06:29:54;;;;;;;7.60;1.45;;;;;;;14.56;89.76;100357.13;6180486;23;20096;-88
2022/10/24 06:32:20;;;;;;;8.95;1.55;;;;;;;14.57;89.07;100357.97;6181561;23;20005;-90
2022/10/24 06:34:45;;;;;;;9.45;1.70;;;;;;;14.58;89.91;100359.69;6182638;23;20439;-88
2022/10/24 06:37:10;;;;;;;9.40;1.80;;;;;;;14.51;90.33;100345.25;6182152;23;20032;-89
2022/10/24 06:39:36;;;;;;;11.73;1.80;;;;;;;14.50;90.36;100351.38;6182733;23;20501;-89
2022/10/24 06:42:01;;;;;;;9.38;1.63;;;;;;;14.51;90.20;100364.34;6180956;23;20001;-89
2022/10/24 06:44:27;;;;;;;8.65;2.10;;;;;;;14.53;89.70;100361.66;6180195;23;20088;-89
2022/10/24 06:46:52;;;;;;;11.60;1.73;;;;;;;14.50;89.57;100365.25;6179291;23;20084;-89
2022/10/24 06:49:17;;;;;;;6.28;1.67;;;;;;;14.58;89.89;100383.16;6181862;23;20032;-87
2022/10/24 06:51:43;;;;;;;12.50;1.83;;;;;;;14.58;89.81;100390.97;6180607;23;19997;-87
2022/10/24 06:54:09;;;;;;;11.85;1.88;;;;;;;14.58;90.05;100393.59;6181906;23;20032;-87
2022/10/24 06:56:34;;;;;;;13.48;1.95;;;;;;;14.55;90.44;100397.19;6180570;23;20490;-87
2022/10/24 06:59:00;;;;;;;11.10;1.98;;;;;;;14.57;90.56;100400.56;6181160;23;20379;-87
2022/10/24 07:01:26;;;;;;;8.73;1.70;;;;;;;14.57;90.80;100410.16;6181394;23;20040;-87
2022/10/24 07:03:52;;;;;;;8.60;1.58;;;;;;;14.58;90.06;100404.88;6180262;23;20501;-88
2022/10/24 07:06:23;;;;;;;7.85;1.45;;;;;;;14.60;91.30;100407.41;6181844;23;20080;-87
2022/10/24 07:08:50;;;;;;;8.50;1.50;;;;;;;14.65;89.96;100408.03;6182632;23;20001;-87
2022/10/24 07:11:16;;;;;;;13.00;1.80;;;;;;;14.72;90.85;100414.66;6180650;23;20011;-87
2022/10/24 07:13:41;;;;;;;7.85;2.00;;;;;;;14.74;90.11;100419.81;6181120;23;20083;-88
2022/10/24 07:16:07;;;;;;;11.10;1.73;;;;;;;14.76;90.31;100416.19;6177975;23;20016;-87
2022/10/24 07:18:32;;;;;;;8.00;1.52;;;;;;;14.73;90.29;100421.56;6180530;23;20008;-89
2022/10/24 07:21:04;;;;;;;7.93;1.60;;;;;;;14.69;90.74;100416.53;6181328;23;20005;-89
2022/10/24 07:23:29;;;;;;;10.80;1.90;;;;;;;14.69;91.46;100427.84;6181584;23;20005;-88
2022/10/24 07:26:01;;;;;;;8.88;1.60;;;;;;;14.65;92.07;100438.50;6182013;23;20005;-88
2022/10/24 07:28:26;;;;;;;9.95;2.00;;;;;;;14.61;92.27;100437.78;6181326;23;20005;-89
2022/10/24 07:30:51;;;;;;;12.60;1.73;;;;;;;14.61;92.43;100430.78;6181447;23;20015;-88
2022/10/24 07:33:17;;;;;;;9.60;1.60;;;;;;;14.60;92.55;100439.53;6181479;23;20244;-90
2022/10/24 07:35:42;;;;;;;12.32;1.73;;;;;;;14.63;92.84;100447.22;6181437;23;20264;-88
2022/10/24 07:38:07;;;;;;;11.98;1.50;;;;;;;14.75;92.87;100458.84;6178369;23;20001;-89
2022/10/24 07:40:33;;;;;;;7.35;1.40;;;;;;;14.85;92.64;100457.50;6178835;23;20001;-89
2022/10/24 07:42:59;;;;;;;8.98;1.73;;;;;;;15.01;92.57;100473.28;6181053;23;20008;-90
2022/10/24 07:45:24;;;;;;;10.13;1.70;;;;;;;15.08;91.76;100453.78;6180306;23;20044;-89
2022/10/24 07:47:49;;;;;;;9.60;1.80;;;;;;;15.19;90.12;100455.88;6180781;23;20075;-89
2022/10/24 07:50:16;;;;;;;6.90;1.43;;;;;;;15.24;91.21;100459.09;6180449;23;20229;-89
2022/10/24 07:52:41;;;;;;;11.60;1.60;;;;;;;15.31;90.85;100461.34;6181341;23;20601;-89
2022/10/24 07:55:07;;;;;;;10.98;2.03;;;;;;;15.43;90.02;100471.19;6180252;23;20463;-89
2022/10/24 07:57:32;;;;;;;12.07;1.70;;;;;;;15.51;88.35;100475.19;6179770;23;20005;-90
2022/10/24 08:00:00;;;;;;;12.87;1.90;;;;;;;15.52;88.35;100479.50;6178744;23;20105;-90
2022/10/24 08:02:26;;;;;;;10.13;1.70;;;;;;;15.52;87.60;100501.22;6179992;23;20272;-89
2022/10/24 08:04:51;;;;;;;9.50;1.95;;;;;;;15.50;90.13;100494.38;6181226;23;20009;-90
2022/10/24 08:07:16;;;;;;;10.55;1.45;;;;;;;15.43;91.82;100492.06;6180248;23;20431;-90
2022/10/24 08:09:45;;;;;;;8.45;1.38;;;;;;;15.38;92.21;100498.44;6179132;23;20005;-90
2022/10/24 08:12:11;;;;;;;10.05;1.77;;;;;;;15.32;91.58;100494.38;6203751;23;19997;-88
2022/10/24 08:14:38;;;;;;;7.38;1.42;;;;;;;15.38;91.14;100491.47;6181048;23;20001;-89
2022/10/24 08:17:04;;;;;;;10.23;1.60;;;;;;;15.42;91.27;100502.63;6181203;23;20007;-90
2022/10/24 08:19:30;;;;;;;9.20;1.50;;;;;;;15.47;89.90;100507.63;6179793;23;20005;-89
2022/10/24 08:21:55;;;;;;;9.95;1.55;;;;;;;15.42;89.49;100505.25;6181286;23;20001;-90
2022/10/24 08:24:21;;;;;;;7.32;1.25;;;;;;;15.46;89.12;100518.97;6179628;23;20009;-89
2022/10/24 08:26:47;;;;;;;8.35;1.35;;;;;;;15.54;88.43;100498.59;6181419;23;20072;-89
2022/10/24 08:29:14;;;;;;;6.90;1.60;;;;;;;15.65;88.78;100514.56;6176397;23;20051;-88
2022/10/24 08:31:39;;;;;;;7.57;1.50;;;;;;;15.75;86.89;100514.03;6179567;23;20072;-89
2022/10/24 08:34:05;;;;;;;9.45;1.35;;;;;;;15.79;87.34;100528.63;6180612;23;20055;-91
2022/10/24 08:36:33;;;;;;;11.98;1.50;;;;;;;15.78;87.05;100519.09;6179872;23;20008;-88
2022/10/24 08:38:59;;;;;;;9.65;1.60;;;;;;;15.88;86.52;100516.03;6179911;23;20076;-89
2022/10/24 08:41:42;;;;;;;8.63;1.70;;;;;;;15.96;86.61;100524.34;6179652;23;20001;-89
2022/10/24 08:44:19;;;;;;;8.00;1.30;;;;;;;15.90;85.76;100522.84;6178221;23;20033;-88
2022/10/24 08:47:01;;;;;;;9.85;1.70;;;;;;;15.82;85.81;100530.25;6181512;23;20009;-89
2022/10/24 08:49:42;;;;;;;6.68;1.30;;;;;;;15.87;85.68;100532.63;6178507;23;20015;-89
2022/10/24 08:52:27;;;;;;;7.22;1.13;;;;;;;15.80;86.42;100525.09;6180673;23;20008;-90
2022/10/24 08:54:54;;;;;;;8.25;1.40;;;;;;;15.76;85.41;100512.28;6178292;23;20044;-87
2022/10/24 08:57:24;;;;;;;6.47;1.50;;;;;;;15.73;85.59;100530.72;6180517;23;20055;-89
2022/10/24 08:59:53;;;;;;;7.57;1.55;;;;;;;15.70;85.37;100523.00;6180484;23;20005;-89
2022/10/24 09:02:24;;;;;;;6.78;1.25;;;;;;;15.69;86.39;100537.03;6178622;23;20055;-88
2022/10/24 09:04:58;;;;;;;4.40;1.23;;;;;;;15.66;85.79;100540.63;6180571;23;20005;-89
2022/10/24 09:07:23;;;;;;;;;;;;;;;15.74;87.01;100545.47;6179951;23;20005;-91
2022/10/24 09:09:57;;;;;;;4.28;1.55;;;;;;;15.68;84.69;100535.31;6178886;23;19973;-91
2022/10/24 09:12:23;;;;;;;10.93;1.27;;;;;;;15.69;85.20;100521.34;6181582;23;20008;-90
2022/10/24 09:14:56;;;;;;;8.32;1.77;;;;;;;15.73;83.33;100538.56;6178723;23;20033;-90
2022/10/24 09:17:31;;;;;;;9.98;1.40;;;;;;;15.79;84.29;100539.09;6179767;23;20327;-89
2022/10/24 09:20:18;;;;;;;6.35;1.20;;;;;;;15.86;84.51;100552.69;6179842;23;20011;-89
2022/10/24 09:22:44;;;;;;;8.95;1.30;;;;;;;15.93;81.69;100555.84;6176710;23;20029;-89
2022/10/24 09:25:20;;;;;;;8.45;1.67;;;;;;;15.95;82.53;100554.84;6179549;23;20001;-91
2022/10/24 09:27:46;;;;;;;7.90;1.50;;;;;;;16.02;82.58;100552.78;6179104;23;20059;-91
2022/10/24 09:30:20;;;;;;;9.02;1.10;;;;;;;16.09;83.23;100562.00;6179525;23;20005;-90
2022/10/24 09:32:46;;;;;;;9.63;1.30;;;;;;;16.26;82.18;100575.06;6178577;23;20016;-91
2022/10/24 09:35:18;;;;;;;7.05;1.30;;;;;;;16.45;81.23;100565.31;6182872;23;20005;-90
2022/10/24 09:37:54;;;;;;;5.93;1.23;;;;;;;16.52;80.63;100563.22;6182502;23;20009;-92
2022/10/24 09:40:19;;;;;;;7.13;1.38;;;;;;;16.53;79.35;100564.91;6182146;23;20009;-90
2022/10/24 09:43:14;;;;;;;6.32;1.50;;;;;;;16.49;80.96;100558.16;6180770;23;20068;-90
2022/10/24 09:45:45;;;;;;;9.70;1.63;;;;;;;16.49;80.43;100574.72;6183102;23;20431;-90
2022/10/24 09:48:36;;;;;;;9.57;1.67;;;;;;;16.54;79.43;100582.31;6180942;23;20001;-90
2022/10/24 09:51:02;;;;;;;7.32;1.33;;;;;;;16.54;78.67;100572.69;6182013;23;20048;-91
2022/10/24 09:53:36;;;;;;;7.88;1.17;;;;;;;16.55;79.24;100571.78;6181947;23;20036;-91
2022/10/24 09:56:13;;;;;;;11.05;1.40;;;;;;;16.61;79.16;100583.72;6182438;23;20020;-90
2022/10/24 09:58:39;;;;;;;9.77;1.48;;;;;;;16.65;77.68;100576.56;6182191;23;20034;-90
2022/10/24 10:01:12;;;;;;;10.90;1.65;;;;;;;16.72;78.33;100591.84;6181029;23;20009;-90
2022/10/24 10:03:41;;;;;;;11.48;1.98;;;;;;;16.78;78.20;100590.69;6180972;23;20004;-89
2022/10/24 10:06:20;;;;;;;9.63;1.67;;;;;;;16.92;78.72;100582.94;6179715;23;20009;-91
2022/10/24 10:08:52;;;;;;;8.93;1.50;;;;;;;17.00;77.29;100601.69;6179679;23;20088;-91
2022/10/24 10:11:26;;;;;;;10.10;1.60;;;;;;;17.10;78.07;100607.28;6181692;23;20007;-91
2022/10/24 10:13:53;;;;;;;9.40;1.90;;;;;;;17.17;75.09;100609.47;6179209;23;20327;-90
2022/10/24 10:16:28;;;;;;;9.68;1.60;;;;;;;17.20;77.42;100605.81;6181688;23;20012;-91
2022/10/24 10:19:03;;;;;;;;;;;;;;;17.27;78.40;100609.81;6178469;23;20012;-91
2022/10/24 10:21:51;;;;;;;8.05;1.55;;;;;;;17.40;77.36;100617.84;6177841;23;19954;-90
2022/10/24 10:24:38;;;;;;;9.73;1.55;;;;;;;17.43;76.55;100620.28;6178332;23;20032;-91
2022/10/24 10:27:22;;;;;;;11.05;1.70;;;;;;;17.51;77.95;100634.66;6180568;23;20012;-91
2022/10/24 10:29:47;;;;;;;8.27;1.60;;;;;;;17.57;74.41;100620.38;6177269;23;20032;-87
2022/10/24 10:32:22;;;;;;;10.47;1.83;;;;;;;17.66;75.93;100619.91;6180032;23;20000;-88
2022/10/24 10:35:05;;;;;;;8.25;1.67;;;;;;;17.85;76.89;100625.78;6180933;23;20248;-88
2022/10/24 10:37:34;;;;;;;13.13;2.03;;;;;;;18.05;75.25;100625.47;6182238;23;20013;-88
2022/10/24 10:40:18;;;;;;;13.90;1.90;;;;;;;18.13;71.99;100620.63;6181259;23;20005;-88
2022/10/24 10:43:24;;;;;;;13.85;2.05;;;;;;;18.32;74.68;100637.91;6180732;23;20005;-88
2022/10/24 10:46:10;;;;;;;7.43;1.67;;;;;;;18.53;72.66;100644.50;6179178;23;20639;-89
2022/10/24 10:48:54;;;;;;;9.73;1.65;;;;;;;18.67;71.71;100631.44;6179957;23;20466;-89
2022/10/24 10:51:49;;;;;;;11.20;1.77;;;;;;;18.89;73.15;100644.09;6181232;23;20025;-88
2022/10/24 10:54:35;;;;;;;12.23;1.60;;;;;;;18.82;72.12;100648.88;6179182;23;20025;-88
2022/10/24 10:57:18;;;;;;;7.85;1.60;;;;;;;18.58;71.61;100657.38;6179557;23;20016;-88
2022/10/24 10:59:51;;;;;;;10.15;1.73;;;;;;;18.33;68.51;100661.44;6181616;23;20005;-88
2022/10/24 11:02:41;;;;;;;4.90;1.20;;;;;;;18.12;71.33;100665.31;6177137;23;20013;-87
2022/10/24 11:05:14;;;;;;;9.13;1.50;;;;;;;17.83;70.18;100679.22;6179935;23;20009;-88
2022/10/24 11:07:55;;;;;;;8.15;1.90;;;;;;;17.67;70.36;100676.63;6181294;23;20047;-88
2022/10/24 11:10:25;;;;;;;6.35;1.40;;;;;;;17.58;70.78;100675.34;6176823;23;20092;-88
2022/10/24 11:12:53;;;;;;;8.65;1.70;;;;;;;17.46;71.43;100677.78;6179326;23;20001;-88
2022/10/24 11:15:28;;;;;;;7.88;1.83;;;;;;;17.33;75.19;100675.81;6177237;23;20048;-87
2022/10/24 11:18:16;;;;;;;;;;;;;;;17.32;74.99;100675.91;6178838;23;20387;-88
2022/10/24 11:21:06;;;;;;;12.35;1.60;;;;;;;17.08;76.08;100680.69;6177514;23;19915;-89
2022/10/24 11:23:50;;;;;;;5.18;1.50;;;;;;;16.97;77.49;100681.28;6180653;23;20084;-89
2022/10/24 11:26:33;;;;;;;8.30;1.92;;;;;;;16.94;77.71;100676.19;6179540;23;20008;-89
2022/10/24 11:29:28;;;;;;;8.30;1.65;;;;;;;16.92;78.30;100678.03;6180324;23;20028;-89
2022/10/24 11:31:58;;;;;;;11.77;2.00;;;;;;;16.88;79.12;100668.66;6176595;23;20005;-89
2022/10/24 11:34:45;;;;;;;6.90;1.45;;;;;;;16.92;79.15;100682.44;6178736;23;20100;-90